Nearby METAR Reports

 

KBVO - Bartlesville, Oklahoma, USA
Distance from station: WNW 10mi, 16km
Updated: Sun, 22-Sep-2019 12:53am CDT
Clear
Clear
 Wind from S
Wind: S 9 mph , 15 km/h
Temperature: 77°F , 25°C
Dew Point: 70°F , 21°C
Humidity: 79%
Barometer: 29.95 inHg , 1014.2 hPa
Clouds: Clear
Visibility: 10 miles , 16 km
2019/09/22 05:53 KBVO 220553Z AUTO 18008KT 10SM CLR 25/21 A2995 RMK AO2 SLP129 T02500211 10272 20239 402890228 58002
KCFV - Coffeyville, Kansas, USA
Distance from station: NNE 31mi, 49km
Updated: Sun, 22-Sep-2019 12:52am CDT
Clear
Clear
 Wind from S
Wind: S 15 mph , 24 km/h, Gust: 23 mph , 37 km/h
Temperature: 77°F , 25°C
Dew Point: 70°F , 21°C
Humidity: 79%
Barometer: 29.93 inHg , 1013.5 hPa
Clouds: Clear
Visibility: 10 miles , 16 km
2019/09/22 05:52 KCFV 220552Z AUTO 18013G20KT 10SM CLR 25/21 A2993 RMK AO2 SLP128 T02500206 10267 20244 402830228 55000
 
KIDP - Independence, Kansas, USA
Distance from station: N 32mi, 52km
Updated: Sun, 22-Sep-2019 1:15am CDT
Overcast
Overcast
 Wind from S
Wind: S 15 mph , 24 km/h, Gust: 22 mph , 35 km/h
Temperature: 77°F , 25°C
Dew Point: 70°F , 21°C
Humidity: 79%
Barometer: 29.94 inHg , 1013.9 hPa
Clouds: Overcast
Visibility: 10 miles , 16 km
Cloud details: Overcast 8000 ft
2019/09/22 06:15 KIDP 220615Z AUTO 18013G19KT 10SM OVC080 25/21 A2994 RMK AO2 T02470210
KGCM - Claremore, Oklahoma, USA
Distance from station: SE 35mi, 56km
Updated: Sun, 22-Sep-2019 1:15am CDT
Clear
Clear
 Wind from S
Wind: S 13 mph , 20 km/h, Gust: 18 mph , 30 km/h
Temperature: 73°F , 23°C
Dew Point: 68°F , 20°C
Humidity: 83%
Barometer: 29.98 inHg , 1015.2 hPa
Clouds: Clear
Visibility: 10 miles , 16 km
2019/09/22 06:15 KGCM 220615Z AUTO 17011G16KT 10SM CLR 23/20 A2998 RMK AO2
 
KTUL - Tulsa, Oklahoma, USA
Distance from station: S 35mi, 56km
Updated: Sun, 22-Sep-2019 12:53am CDT
Mostly cloudy
Mostly cloudy
 Wind from SSE
Wind: SSE 10 mph , 17 km/h, Gust: 20 mph , 31 km/h
Temperature: 79°F , 26°C
Dew Point: 70°F , 21°C
Humidity: 74%
Barometer: 29.93 inHg , 1013.5 hPa
Clouds: Mostly cloudy
Visibility: 10 miles , 16 km
Cloud details: Mostly cloudy 25000 ft
2019/09/22 05:53 KTUL 220553Z 16009G17KT 10SM BKN250 26/21 A2993 RMK AO2 SLP128 T02560211 10294 20256 403060233 58003
KRVS - Tulsa, Oklahoma, USA
Distance from station: S 46mi, 74km
Updated: Sun, 22-Sep-2019 12:53am CDT
Clear
Clear
 Wind from S
Wind: S 10 mph , 17 km/h
Temperature: 79°F , 26°C
Dew Point: 70°F , 21°C
Humidity: 74%
Barometer: 29.95 inHg , 1014.2 hPa
Clouds: Clear
Visibility: 10 miles , 16 km
2019/09/22 05:53 KRVS 220553Z 17009KT 10SM CLR 26/21 A2995 RMK AO2 SLP145 T02560211 10294 20256 403170239 58002
 
KPPF - Parsons, Kansas, USA
Distance from station: NNE 48mi, 76km
Updated: Sun, 22-Sep-2019 12:52am CDT
Clear
Clear
 Wind from S
Wind: S 9 mph , 15 km/h, Gust: 18 mph , 30 km/h
Temperature: 75°F , 24°C
Dew Point: 70°F , 21°C
Humidity: 83%
Barometer: 29.96 inHg , 1014.6 hPa
Clouds: Clear
Visibility: 10 miles , 16 km
2019/09/22 05:52 KPPF 220552Z AUTO 19008G16KT 10SM CLR 24/21 A2996 RMK AO2 SLP136 T02440211 10267 20244 402780222 53004 $
KGMJ - Grove, Oklahoma, USA
Distance from station: E 63mi, 101km
Updated: Sun, 22-Sep-2019 1:15am CDT
Clear
Clear
 Wind from S
Wind: S 9 mph , 15 km/h
Temperature: 73°F , 23°C
Dew Point: 64°F , 18°C
Humidity: 74%
Barometer: 30.00 inHg , 1015.9 hPa
Clouds: Clear
Visibility: 10 miles , 16 km
2019/09/22 06:15 KGMJ 220615Z AUTO 17008KT 10SM CLR 23/18 A3000 RMK AO2
 
KPNC - Ponca City, Oklahoma, USA
Distance from station: W 69mi, 111km
Updated: Sun, 22-Sep-2019 1:31am CDT
Light rain, Overcast
Light rain, Overcast
 Wind from SW
Wind: SW 8 mph , 13 km/h
Temperature: 75°F , 24°C
Dew Point: 70°F , 21°C
Humidity: 83%
Barometer: 29.94 inHg , 1013.9 hPa
Summary: Light rain
Clouds: Overcast
Visibility: 4 miles , 6 km
Cloud details: Few Clouds 2500 ft
Mostly cloudy 2900 ft
Overcast 3500 ft
2019/09/22 06:31 KPNC 220631Z AUTO 23007KT 4SM -RA FEW025 BKN029 OVC035 24/21 A2994 RMK AO2 RAB20 P0000 T02390211
KCNU - Chanute, Kansas, USA
Distance from station: NNE 69mi, 112km
Updated: Sun, 22-Sep-2019 12:52am CDT
Few Clouds
Few Clouds
 Wind from S
Wind: S 18 mph , 30 km/h, Gust: 30 mph , 48 km/h
Temperature: 77°F , 25°C
Dew Point: 70°F , 21°C
Humidity: 79%
Barometer: 29.94 inHg , 1013.9 hPa
Clouds: Few Clouds
Visibility: 10 miles , 16 km
Cloud details: Few Clouds 8000 ft
2019/09/22 05:52 KCNU 220552Z AUTO 18016G26KT 10SM FEW080 25/21 A2994 RMK AO2 PK WND 18026/0551 SLP130 60007 T02500206 10256 20244 402780211 52005